Time;durP1;ratioP1;P1;durP2;ratioP2;P2;SDS_P1;SDS_P2;PMS_P1;PMS_P2;Temp;Humidity;BMP_temperature;BMP_pressure;BME280_temperature;BME280_humidity;BME280_pressure;Samples;Min_cycle;Max_cycle;Signal;HPM_P1;HPM_P2
2022/02/15 00:00:41;;;;;;;66.22;32.17;;;;;;;;;;5074650;28;20540;-76
2022/02/15 00:03:08;;;;;;;83.43;37.45;;;;;;;;;;5072916;28;20454;-77
2022/02/15 00:05:34;;;;;;;118.28;45.72;;;;;;;;;;5074260;28;20214;-78
2022/02/15 00:08:01;;;;;;;121.75;46.42;;;;;;;;;;5074332;28;20107;-73
2022/02/15 00:10:26;;;;;;;105.88;40.85;;;;;;;;;;5074534;28;20090;-77
2022/02/15 00:12:52;;;;;;;80.68;36.13;;;;;;;;;;5072615;28;20028;-74
2022/02/15 00:15:17;;;;;;;67.68;32.42;;;;;;;;;;5074131;28;20037;-74
2022/02/15 00:17:43;;;;;;;60.38;30.40;;;;;;;;;;5073989;28;20035;-74
2022/02/15 00:20:10;;;;;;;62.28;31.30;;;;;;;;;;5073959;28;20162;-74
2022/02/15 00:22:36;;;;;;;62.85;30.98;;;;;;;;;;5074127;28;20588;-74
2022/02/15 00:25:01;;;;;;;61.33;30.63;;;;;;;;;;5074180;28;20111;-74
2022/02/15 00:27:29;;;;;;;65.25;31.58;;;;;;;;;;5089692;28;20356;-75
2022/02/15 00:29:55;;;;;;;60.55;30.00;;;;;;;;;;5073910;28;20032;-71
2022/02/15 00:32:41;;;;;;;58.22;29.63;;;;;;;;;;5089416;28;20012;-70
2022/02/15 00:35:13;;;;;;;57.58;28.55;;;;;;;;;;5072073;28;20484;-70
2022/02/15 00:37:42;;;;;;;63.22;30.05;;;;;;;;;;5088605;28;20503;-70
2022/02/15 00:40:08;;;;;;;54.85;27.80;;;;;;;;;;5072379;28;20102;-70
2022/02/15 00:42:35;;;;;;;54.53;26.70;;;;;;;;;;5073897;28;20469;-71
2022/02/15 00:45:03;;;;;;;56.38;28.33;;;;;;;;;;5073816;28;20467;-71
2022/02/15 00:47:28;;;;;;;51.45;27.17;;;;;;;;;;5073422;28;20016;-71
2022/02/15 00:49:54;;;;;;;56.67;27.85;;;;;;;;;;5073440;28;20031;-71
2022/02/15 00:52:20;;;;;;;51.65;25.35;;;;;;;;;;5072398;28;20498;-71
2022/02/15 00:54:45;;;;;;;53.25;26.83;;;;;;;;;;5072408;28;20037;-73
2022/02/15 00:57:11;;;;;;;53.72;27.08;;;;;;;;;;5072200;28;20021;-74
2022/02/15 00:59:37;;;;;;;50.35;24.95;;;;;;;;;;5072831;28;20024;-73
2022/02/15 01:02:02;;;;;;;48.95;25.17;;;;;;;;;;5088798;28;20020;-73
2022/02/15 01:04:28;;;;;;;54.70;27.55;;;;;;;;;;5073536;28;20036;-73
2022/02/15 01:06:53;;;;;;;58.38;28.88;;;;;;;;;;5073485;28;20032;-73
2022/02/15 01:09:19;;;;;;;53.85;26.17;;;;;;;;;;5088839;28;20074;-73
2022/02/15 01:11:44;;;;;;;47.67;24.60;;;;;;;;;;5073378;28;20070;-73
2022/02/15 01:14:10;;;;;;;50.50;25.10;;;;;;;;;;5073581;28;20037;-71
2022/02/15 01:16:35;;;;;;;47.92;23.83;;;;;;;;;;5073456;28;20469;-70
2022/02/15 01:19:02;;;;;;;49.08;24.52;;;;;;;;;;5073356;28;20035;-70
2022/02/15 01:21:27;;;;;;;51.38;24.48;;;;;;;;;;5072282;28;20116;-74
2022/02/15 01:23:53;;;;;;;45.88;24.23;;;;;;;;;;5089324;28;20112;-75
2022/02/15 01:26:18;;;;;;;46.25;24.02;;;;;;;;;;5088740;28;20017;-76
2022/02/15 01:28:45;;;;;;;46.45;22.83;;;;;;;;;;5071716;28;20059;-75
2022/02/15 01:31:12;;;;;;;46.00;22.73;;;;;;;;;;5071960;28;20451;-75
2022/02/15 01:33:37;;;;;;;42.28;21.83;;;;;;;;;;5072182;28;20028;-74
2022/02/15 01:36:04;;;;;;;41.72;21.15;;;;;;;;;;5071930;28;20586;-74
2022/02/15 01:38:31;;;;;;;40.10;21.65;;;;;;;;;;5071796;28;20401;-75
2022/02/15 01:40:58;;;;;;;39.92;20.50;;;;;;;;;;5055296;28;20082;-71
2022/02/15 01:43:24;;;;;;;41.95;21.85;;;;;;;;;;5071366;28;20044;-71
2022/02/15 01:45:50;;;;;;;41.63;22.23;;;;;;;;;;5088472;28;20031;-71
2022/02/15 01:48:15;;;;;;;39.92;20.38;;;;;;;;;;5071469;28;20032;-71
2022/02/15 01:50:42;;;;;;;42.30;22.02;;;;;;;;;;5071625;28;20024;-71
2022/02/15 01:53:07;;;;;;;43.28;22.20;;;;;;;;;;5071603;28;20123;-71
2022/02/15 01:55:33;;;;;;;39.63;20.20;;;;;;;;;;5071465;28;20116;-71
2022/02/15 01:57:59;;;;;;;43.05;21.65;;;;;;;;;;5088376;28;20063;-71
2022/02/15 02:00:27;;;;;;;42.95;21.92;;;;;;;;;;5071416;28;20092;-71
2022/02/15 02:02:59;;;;;;;40.97;20.65;;;;;;;;;;5071303;28;20036;-71
2022/02/15 02:08:16;;;;;;;42.10;21.75;;;;;;;;;;5071606;28;20075;-76
2022/02/15 02:10:46;;;;;;;38.60;20.35;;;;;;;;;;5073697;28;20111;-76
2022/02/15 02:13:21;;;;;;;52.35;25.52;;;;;;;;;;5075037;28;20185;-71
2022/02/15 02:15:50;;;;;;;63.53;28.50;;;;;;;;;;5075150;28;20040;-76
2022/02/15 02:18:23;;;;;;;68.63;27.98;;;;;;;;;;5075516;28;20024;-76
2022/02/15 02:20:50;;;;;;;56.65;26.25;;;;;;;;;;5074818;28;20028;-76
2022/02/15 02:23:17;;;;;;;40.63;20.25;;;;;;;;;;5076192;28;20055;-77
2022/02/15 02:25:45;;;;;;;36.80;18.70;;;;;;;;;;5074997;28;20094;-76
2022/02/15 02:28:14;;;;;;;39.83;19.38;;;;;;;;;;5075211;28;20360;-75
2022/02/15 02:30:39;;;;;;;38.42;20.00;;;;;;;;;;5091717;28;20028;-75
2022/02/15 02:33:06;;;;;;;35.28;18.58;;;;;;;;;;5075268;28;20066;-70
2022/02/15 02:35:32;;;;;;;37.03;18.95;;;;;;;;;;5074612;28;20029;-70
2022/02/15 02:37:59;;;;;;;34.67;18.60;;;;;;;;;;5073843;28;20090;-71
2022/02/15 02:40:25;;;;;;;29.50;16.45;;;;;;;;;;5091302;28;20028;-76
2022/02/15 02:42:50;;;;;;;29.42;17.15;;;;;;;;;;5075694;28;20425;-71
2022/02/15 02:45:18;;;;;;;28.52;16.40;;;;;;;;;;5075765;28;20035;-70
2022/02/15 02:47:48;;;;;;;30.17;16.23;;;;;;;;;;5074583;28;20075;-70
2022/02/15 02:50:14;;;;;;;;;;;;;;;;;;5074892;28;20417;-70
2022/02/15 02:52:40;;;;;;;32.90;17.88;;;;;;;;;;5075709;28;19908;-76
2022/02/15 02:55:06;;;;;;;42.08;19.65;;;;;;;;;;5091083;28;20028;-77
2022/02/15 02:57:35;;;;;;;42.83;20.80;;;;;;;;;;5074024;28;20158;-75
2022/02/15 03:00:04;;;;;;;28.60;17.02;;;;;;;;;;5074423;28;20173;-75
2022/02/15 03:02:48;;;;;;;32.20;17.75;;;;;;;;;;5074352;28;20020;-76
2022/02/15 03:05:17;;;;;;;33.40;17.88;;;;;;;;;;5091053;28;20037;-75
2022/02/15 03:07:43;;;;;;;27.42;16.85;;;;;;;;;;5073806;28;20016;-76
2022/02/15 03:10:08;;;;;;;31.30;18.17;;;;;;;;;;5074333;28;20035;-75
2022/02/15 03:12:41;;;;;;;28.48;17.33;;;;;;;;;;5057632;28;20071;-76
2022/02/15 03:15:07;;;;;;;28.40;17.05;;;;;;;;;;5073802;28;20122;-76
2022/02/15 03:17:37;;;;;;;30.20;16.58;;;;;;;;;;5073668;28;20020;-75
2022/02/15 03:20:03;;;;;;;28.05;16.80;;;;;;;;;;5090696;28;20055;-70
2022/02/15 03:22:29;;;;;;;32.05;17.02;;;;;;;;;;5089499;28;20078;-70
2022/02/15 03:24:55;;;;;;;28.77;16.15;;;;;;;;;;5073942;28;20028;-70
2022/02/15 03:27:20;;;;;;;27.55;16.52;;;;;;;;;;5073733;28;20013;-70
2022/02/15 03:29:47;;;;;;;36.15;24.77;;;;;;;;;;5090514;28;20025;-71
2022/02/15 03:32:12;;;;;;;31.92;17.75;;;;;;;;;;5073405;28;20107;-70
2022/02/15 03:34:39;;;;;;;38.25;19.45;;;;;;;;;;5073678;28;20367;-71
2022/02/15 03:37:05;;;;;;;31.77;16.42;;;;;;;;;;5089640;28;20107;-70
2022/02/15 03:39:32;;;;;;;31.35;18.33;;;;;;;;;;5090522;28;20459;-70
2022/02/15 03:44:50;;;;;;;53.17;26.38;;;;;;;;;;5073809;28;20368;-70
2022/02/15 03:47:23;;;;;;;43.03;23.60;;;;;;;;;;5073520;28;20386;-74
2022/02/15 03:49:49;;;;;;;31.58;17.63;;;;;;;;;;5073510;28;20017;-75
2022/02/15 03:52:15;;;;;;;33.28;17.95;;;;;;;;;;5073338;28;20094;-75
2022/02/15 03:54:43;;;;;;;33.38;18.52;;;;;;;;;;5073421;28;20145;-75
2022/02/15 03:57:09;;;;;;;32.72;18.15;;;;;;;;;;5090074;28;20066;-77
2022/02/15 03:59:40;;;;;;;32.92;18.48;;;;;;;;;;5073467;28;20020;-77
2022/02/15 04:02:13;;;;;;;39.80;25.85;;;;;;;;;;5089839;28;20032;-76
2022/02/15 04:04:38;;;;;;;28.48;16.67;;;;;;;;;;5074154;28;20366;-75
2022/02/15 04:07:04;;;;;;;28.80;16.13;;;;;;;;;;5090268;28;20032;-71
2022/02/15 04:09:32;;;;;;;27.75;15.77;;;;;;;;;;5089527;28;20053;-74
2022/02/15 04:12:00;;;;;;;41.17;17.00;;;;;;;;;;5089750;28;20031;-76
2022/02/15 04:14:34;;;;;;;29.35;16.77;;;;;;;;;;5072738;28;20038;-76
2022/02/15 04:16:59;;;;;;;27.08;15.48;;;;;;;;;;5072692;28;20032;-76
2022/02/15 04:19:26;;;;;;;30.70;17.30;;;;;;;;;;5090154;28;20020;-76
2022/02/15 04:21:52;;;;;;;28.75;16.55;;;;;;;;;;5072476;28;20032;-76
2022/02/15 04:24:17;;;;;;;35.00;16.95;;;;;;;;;;5055892;28;20024;-72
2022/02/15 04:26:44;;;;;;;27.55;17.38;;;;;;;;;;5089877;28;20028;-72
2022/02/15 04:29:10;;;;;;;33.00;17.88;;;;;;;;;;5089270;28;20367;-72
2022/02/15 04:31:48;;;;;;;46.33;18.63;;;;;;;;;;5072804;28;20027;-72
2022/02/15 04:34:15;;;;;;;29.92;17.85;;;;;;;;;;5072469;28;20463;-72
2022/02/15 04:36:41;;;;;;;26.95;16.30;;;;;;;;;;5072308;28;20154;-72
2022/02/15 04:39:07;;;;;;;41.58;17.58;;;;;;;;;;5089360;28;20097;-72
2022/02/15 04:41:38;;;;;;;28.52;16.48;;;;;;;;;;5073040;28;20028;-71
2022/02/15 04:44:09;;;;;;;29.17;16.55;;;;;;;;;;5072161;28;20028;-71
2022/02/15 04:46:35;;;;;;;31.13;17.83;;;;;;;;;;5089210;28;20031;-72
2022/02/15 04:49:02;;;;;;;32.10;18.10;;;;;;;;;;5088728;28;20013;-71
2022/02/15 04:51:28;;;;;;;56.63;41.58;;;;;;;;;;5072632;28;20031;-78
2022/02/15 04:53:53;;;;;;;94.93;81.50;;;;;;;;;;5073521;28;20385;-78
2022/02/15 04:56:21;;;;;;;80.28;64.22;;;;;;;;;;5072707;28;20024;-77
2022/02/15 04:58:47;;;;;;;71.25;59.63;;;;;;;;;;5089119;28;20020;-77
2022/02/15 05:01:14;;;;;;;62.72;49.00;;;;;;;;;;5072135;28;20024;-77
2022/02/15 05:04:01;;;;;;;35.70;25.55;;;;;;;;;;5066188;28;20036;-77
2022/02/15 05:06:30;;;;;;;36.73;24.73;;;;;;;;;;5071394;28;20032;-76
2022/02/15 05:08:55;;;;;;;58.22;44.20;;;;;;;;;;5071618;28;20089;-76
2022/02/15 05:11:21;;;;;;;37.58;25.92;;;;;;;;;;5088638;28;20078;-71
2022/02/15 05:13:53;;;;;;;33.38;19.25;;;;;;;;;;5072013;28;20024;-69
2022/02/15 05:16:31;;;;;;;29.83;18.13;;;;;;;;;;5071845;28;20032;-69
2022/02/15 05:19:12;;;;;;;27.20;17.58;;;;;;;;;;5071485;28;20502;-69
2022/02/15 05:21:39;;;;;;;26.40;15.52;;;;;;;;;;5070549;28;20111;-70
2022/02/15 05:24:05;;;;;;;23.80;14.43;;;;;;;;;;5087783;28;20486;-70
2022/02/15 05:26:47;;;;;;;26.58;16.63;;;;;;;;;;5071938;28;20497;-70
2022/02/15 05:29:26;;;;;;;30.63;17.38;;;;;;;;;;5072064;28;20032;-70
2022/02/15 05:31:53;;;;;;;27.63;16.52;;;;;;;;;;5088698;28;20552;-70
2022/02/15 05:34:19;;;;;;;40.72;20.17;;;;;;;;;;5071859;28;20036;-70
2022/02/15 05:36:47;;;;;;;59.83;22.90;;;;;;;;;;5088564;28;20029;-72
2022/02/15 05:39:13;;;;;;;46.50;23.90;;;;;;;;;;5070819;28;20052;-70
2022/02/15 05:41:50;;;;;;;48.78;24.02;;;;;;;;;;5088404;28;20392;-71
2022/02/15 05:44:15;;;;;;;53.70;26.33;;;;;;;;;;5072379;28;20419;-71
2022/02/15 05:46:42;;;;;;;53.58;26.60;;;;;;;;;;5075149;28;20024;-71
2022/02/15 05:49:08;;;;;;;57.55;28.65;;;;;;;;;;5092421;28;20028;-71
2022/02/15 05:51:43;;;;;;;54.97;27.45;;;;;;;;;;5092339;28;20451;-71
2022/02/15 05:54:15;;;;;;;48.33;25.30;;;;;;;;;;5075261;28;20028;-71
2022/02/15 05:56:43;;;;;;;49.50;25.85;;;;;;;;;;5075305;28;20470;-71
2022/02/15 05:59:34;;;;;;;45.38;24.73;;;;;;;;;;5074328;28;20097;-71
2022/02/15 06:02:20;;;;;;;46.47;24.08;;;;;;;;;;5074966;28;20064;-71
2022/02/15 06:04:54;;;;;;;43.33;24.38;;;;;;;;;;5075159;28;20036;-70
2022/02/15 06:07:30;;;;;;;42.38;23.55;;;;;;;;;;5091974;28;20028;-76
2022/02/15 06:10:08;;;;;;;42.33;23.45;;;;;;;;;;5076914;28;20035;-76
2022/02/15 06:12:36;;;;;;;41.55;25.15;;;;;;;;;;5075485;28;20115;-76
2022/02/15 06:15:05;;;;;;;53.55;27.38;;;;;;;;;;5075019;28;20013;-76
2022/02/15 06:17:53;;;;;;;45.72;25.90;;;;;;;;;;5076251;28;20048;-77
2022/02/15 06:23:54;;;;;;;45.30;26.33;;;;;;;;;;5076583;28;20039;-77
2022/02/15 06:29:55;;;;;;;37.55;21.70;;;;;;;;;;5076229;28;20027;-77
2022/02/15 06:36:03;;;;;;;40.88;21.90;;;;;;;;;;5076134;28;20024;-77
2022/02/15 06:45:13;;;;;;;46.22;25.65;;;;;;;;;;5075972;28;20078;-76
2022/02/15 06:51:14;;;;;;;75.03;30.98;;;;;;;;;;5076092;28;20053;-75
2022/02/15 06:57:34;;;;;;;96.13;40.67;;;;;;;;;;5075950;28;20539;-75
2022/02/15 07:03:35;;;;;;;87.85;41.47;;;;;;;;;;5075548;28;20451;-76
2022/02/15 07:09:38;;;;;;;106.57;43.60;;;;;;;;;;5075744;28;20112;-74
2022/02/15 07:15:46;;;;;;;86.40;39.67;;;;;;;;;;5075632;28;20035;-75
2022/02/15 07:25:24;;;;;;;57.70;28.73;;;;;;;;;;5075434;28;20055;-75
2022/02/15 07:35:37;;;;;;;66.35;37.72;;;;;;;;;;5073184;28;20023;-75
2022/02/15 07:45:17;;;;;;;63.15;35.13;;;;;;;;;;5072987;28;20102;-75
2022/02/15 07:51:18;;;;;;;67.70;39.30;;;;;;;;;;5072848;28;20070;-75
2022/02/15 07:57:18;;;;;;;133.48;62.03;;;;;;;;;;5072743;28;20036;-76
2022/02/15 08:03:19;;;;;;;62.08;33.47;;;;;;;;;;5054409;28;20103;-75
2022/02/15 08:09:21;;;;;;;47.90;24.73;;;;;;;;;;5053901;28;20052;-75
2022/02/15 08:19:03;;;;;;;38.97;21.23;;;;;;;;;;5054408;28;20120;-76
2022/02/15 08:25:04;;;;;;;40.08;20.80;;;;;;;;;;5054351;28;20072;-76
2022/02/15 08:31:05;;;;;;;39.30;21.15;;;;;;;;;;5054218;28;20573;-76
2022/02/15 08:37:06;;;;;;;33.38;17.02;;;;;;;;;;5054152;28;20090;-76
2022/02/15 08:46:55;;;;;;;27.38;14.85;;;;;;;;;;5074034;28;20051;-76
2022/02/15 08:52:56;;;;;;;30.50;15.45;;;;;;;;;;5073941;28;20385;-76
2022/02/15 08:58:56;;;;;;;26.45;12.93;;;;;;;;;;5073914;28;20523;-76
2022/02/15 09:04:57;;;;;;;28.25;15.00;;;;;;;;;;5073855;28;20074;-76
2022/02/15 09:15:01;;;;;;;26.88;16.63;;;;;;;;;;5073526;28;20506;-76
2022/02/15 09:21:03;;;;;;;28.00;15.30;;;;;;;;;;5076320;28;20535;-76
2022/02/15 09:27:03;;;;;;;22.30;14.65;;;;;;;;;;5077463;28;20046;-76
2022/02/15 09:33:04;;;;;;;22.33;13.50;;;;;;;;;;5077625;28;20062;-76
2022/02/15 09:39:05;;;;;;;22.65;12.65;;;;;;;;;;5077501;28;20094;-76
2022/02/15 09:48:42;;;;;;;21.30;10.82;;;;;;;;;;5077284;28;20105;-76
2022/02/15 09:54:45;;;;;;;16.23;9.27;;;;;;;;;;5077187;28;20094;-76
2022/02/15 10:00:46;;;;;;;16.30;9.50;;;;;;;;;;5076790;28;20149;-75
2022/02/15 10:06:47;;;;;;;21.60;11.90;;;;;;;;;;5076530;28;20031;-74
2022/02/15 10:09:13;;;;;;;22.05;11.95;;;;;;;;;;5076449;28;20402;-75
2022/02/15 10:11:42;;;;;;;19.63;12.07;;;;;;;;;;5075595;28;20044;-75
2022/02/15 10:14:08;;;;;;;24.40;11.40;;;;;;;;;;5076289;28;20066;-75
2022/02/15 10:16:46;;;;;;;22.75;12.85;;;;;;;;;;5075021;28;20020;-75
2022/02/15 10:19:20;;;;;;;16.85;11.00;;;;;;;;;;5074859;28;20024;-75
2022/02/15 10:21:48;;;;;;;18.67;8.70;;;;;;;;;;5075992;28;20095;-75
2022/02/15 10:24:14;;;;;;;16.13;8.20;;;;;;;;;;5075938;28;20020;-76
2022/02/15 10:26:40;;;;;;;13.00;8.25;;;;;;;;;;5075790;28;20033;-76
2022/02/15 10:32:40;;;;;;;17.83;11.18;;;;;;;;;;5075871;28;20065;-62
2022/02/15 10:38:45;;;;;;;19.67;11.07;;;;;;;;;;5076424;28;20111;-76
2022/02/15 10:55:21;;;;;;;17.80;11.07;;;;;;;;;;5074977;28;20446;-76
2022/02/15 11:05:08;;;;;;;16.25;10.60;;;;;;;;;;5074838;28;20098;-76
2022/02/15 11:11:34;;;;;;;17.63;11.05;;;;;;;;;;5052738;28;20106;-76
2022/02/15 11:17:15;;;;;;;17.33;10.80;;;;;;;;;;5074691;28;19962;-76
2022/02/15 11:23:21;;;;;;;19.42;10.50;;;;;;;;;;5074378;28;20090;-76
2022/02/15 11:29:22;;;;;;;19.92;11.95;;;;;;;;;;5074238;28;20027;-76
2022/02/15 11:35:29;;;;;;;17.92;11.57;;;;;;;;;;5074419;28;20047;-76
2022/02/15 11:48:52;;;;;;;18.10;10.20;;;;;;;;;;5070807;28;20842;-76
2022/02/15 11:51:21;;;;;;;16.10;10.25;;;;;;;;;;5070551;28;20481;-76
2022/02/15 11:53:48;;;;;;;16.88;10.77;;;;;;;;;;5070419;28;20027;-76
2022/02/15 11:56:17;;;;;;;14.48;9.75;;;;;;;;;;5070482;28;20032;-76
2022/02/15 11:58:47;;;;;;;17.67;10.75;;;;;;;;;;5069246;28;20470;-76
2022/02/15 12:01:22;;;;;;;19.40;9.80;;;;;;;;;;5070532;28;20040;-76
2022/02/15 12:03:49;;;;;;;14.35;9.43;;;;;;;;;;5070404;28;20471;-76
2022/02/15 12:06:15;;;;;;;16.02;9.57;;;;;;;;;;5070255;28;20074;-76
2022/02/15 12:08:40;;;;;;;16.42;10.20;;;;;;;;;;5070558;28;20024;-76
2022/02/15 12:11:06;;;;;;;18.92;11.20;;;;;;;;;;5069084;28;20021;-76
2022/02/15 12:13:32;;;;;;;20.77;12.23;;;;;;;;;;5068582;28;20115;-76
2022/02/15 12:15:59;;;;;;;19.80;10.50;;;;;;;;;;5068861;28;20417;-76
2022/02/15 12:18:31;;;;;;;14.27;10.13;;;;;;;;;;5070179;28;20033;-76
2022/02/15 12:20:57;;;;;;;18.48;10.75;;;;;;;;;;5070025;28;20086;-76
2022/02/15 12:23:25;;;;;;;16.95;9.88;;;;;;;;;;5069871;28;20099;-76
2022/02/15 12:26:22;;;;;;;20.48;11.38;;;;;;;;;;5050095;28;20487;-76
2022/02/15 12:28:55;;;;;;;21.27;11.02;;;;;;;;;;5068787;28;20060;-76
2022/02/15 12:31:23;;;;;;;16.25;9.18;;;;;;;;;;5069964;28;20036;-76
2022/02/15 12:33:49;;;;;;;20.02;10.70;;;;;;;;;;5068558;28;20455;-76
2022/02/15 12:36:15;;;;;;;19.33;11.00;;;;;;;;;;5068439;28;20060;-76
2022/02/15 12:38:40;;;;;;;18.35;11.80;;;;;;;;;;5069743;28;20028;-76
2022/02/15 12:41:13;;;;;;;20.48;11.80;;;;;;;;;;5051680;28;20021;-76
2022/02/15 12:43:39;;;;;;;19.20;11.07;;;;;;;;;;5069473;28;20020;-77
2022/02/15 12:46:06;;;;;;;16.60;10.10;;;;;;;;;;5069586;28;20035;-76
2022/02/15 12:48:32;;;;;;;18.05;10.73;;;;;;;;;;5069186;28;20495;-76
2022/02/15 12:50:57;;;;;;;16.98;10.50;;;;;;;;;;5069211;28;20388;-76
2022/02/15 12:53:24;;;;;;;17.38;10.77;;;;;;;;;;5067874;28;20143;-76
2022/02/15 12:55:50;;;;;;;18.10;10.00;;;;;;;;;;5069312;28;20023;-76
2022/02/15 12:58:16;;;;;;;18.98;11.23;;;;;;;;;;5064569;28;20036;-77
2022/02/15 13:00:42;;;;;;;18.42;10.13;;;;;;;;;;5054939;28;20051;-76
2022/02/15 13:03:09;;;;;;;16.27;9.60;;;;;;;;;;5054835;28;20065;-77
2022/02/15 13:05:35;;;;;;;18.35;9.75;;;;;;;;;;5055893;28;20480;-76
2022/02/15 13:08:00;;;;;;;13.90;9.98;;;;;;;;;;5054692;28;20025;-76
2022/02/15 13:10:29;;;;;;;16.88;10.18;;;;;;;;;;5055748;28;20467;-76
2022/02/15 13:13:14;;;;;;;17.42;10.77;;;;;;;;;;5055809;28;20024;-76
2022/02/15 13:15:40;;;;;;;19.65;10.93;;;;;;;;;;5055512;28;20132;-76
2022/02/15 13:18:06;;;;;;;20.95;11.52;;;;;;;;;;5055618;28;20116;-77
2022/02/15 13:20:35;;;;;;;15.73;9.90;;;;;;;;;;5055487;28;20188;-77
2022/02/15 13:23:04;;;;;;;12.50;8.90;;;;;;;;;;5054441;28;20025;-76
2022/02/15 13:25:38;;;;;;;18.30;10.93;;;;;;;;;;5055549;28;20040;-76
2022/02/15 13:28:04;;;;;;;15.02;9.70;;;;;;;;;;5055413;28;20078;-76
2022/02/15 13:30:29;;;;;;;16.38;9.48;;;;;;;;;;5055418;28;20104;-77
2022/02/15 13:33:08;;;;;;;15.43;8.68;;;;;;;;;;5055395;28;20037;-76
2022/02/15 13:35:37;;;;;;;12.27;8.93;;;;;;;;;;5055393;28;20059;-76
2022/02/15 13:38:05;;;;;;;;;;;;;;;;;;5054571;28;20067;-77
2022/02/15 13:40:30;;;;;;;17.58;9.25;;;;;;;;;;5070552;28;20042;-76
2022/02/15 13:42:56;;;;;;;14.30;9.43;;;;;;;;;;5054019;28;20111;-76
2022/02/15 13:45:22;;;;;;;19.02;11.90;;;;;;;;;;5055041;28;20033;-76
2022/02/15 13:47:48;;;;;;;19.17;12.43;;;;;;;;;;5053241;28;20068;-76
2022/02/15 13:50:14;;;;;;;20.50;11.70;;;;;;;;;;5053844;28;20094;-77
2022/02/15 13:52:39;;;;;;;19.83;10.82;;;;;;;;;;5055063;28;20463;-76
2022/02/15 13:55:05;;;;;;;22.88;12.02;;;;;;;;;;5054955;28;20108;-76
2022/02/15 13:57:34;;;;;;;21.02;11.75;;;;;;;;;;5054815;28;20021;-76
2022/02/15 14:00:00;;;;;;;23.65;13.68;;;;;;;;;;5054889;28;20028;-76
2022/02/15 14:02:25;;;;;;;27.35;14.55;;;;;;;;;;5053578;28;20116;-76
2022/02/15 14:04:52;;;;;;;20.65;12.02;;;;;;;;;;5053461;28;20037;-76
2022/02/15 14:07:18;;;;;;;19.52;11.85;;;;;;;;;;5054784;28;20116;-76
2022/02/15 14:09:44;;;;;;;29.10;15.13;;;;;;;;;;5054218;28;20529;-76
2022/02/15 14:12:11;;;;;;;19.00;11.32;;;;;;;;;;5054294;28;20017;-75
2022/02/15 14:14:38;;;;;;;23.10;13.15;;;;;;;;;;5054627;28;20032;-75
2022/02/15 14:19:48;;;;;;;24.75;12.20;;;;;;;;;;5054946;28;20075;-75
2022/02/15 14:22:14;;;;;;;22.02;12.98;;;;;;;;;;5054490;28;20429;-76
2022/02/15 14:24:40;;;;;;;25.30;14.43;;;;;;;;;;5054610;28;20472;-76
2022/02/15 14:27:05;;;;;;;23.33;13.57;;;;;;;;;;5052674;28;20119;-76
2022/02/15 14:29:31;;;;;;;27.38;14.07;;;;;;;;;;5054438;28;20029;-76
2022/02/15 14:31:57;;;;;;;24.10;13.70;;;;;;;;;;5054459;28;20017;-76
2022/02/15 14:34:23;;;;;;;24.17;13.27;;;;;;;;;;5052817;28;20480;-76
2022/02/15 14:36:49;;;;;;;22.58;13.27;;;;;;;;;;5054114;28;20017;-77
2022/02/15 14:39:15;;;;;;;25.00;13.80;;;;;;;;;;5053713;28;20028;-77
2022/02/15 14:41:40;;;;;;;24.50;13.48;;;;;;;;;;5053435;28;20083;-77
2022/02/15 14:44:06;;;;;;;22.40;13.63;;;;;;;;;;5054179;28;20033;-77
2022/02/15 14:46:33;;;;;;;21.15;14.25;;;;;;;;;;5053002;28;20112;-76
2022/02/15 14:49:00;;;;;;;22.88;14.32;;;;;;;;;;5054416;28;20100;-77
2022/02/15 14:51:25;;;;;;;26.92;14.43;;;;;;;;;;5054020;28;20081;-77
2022/02/15 14:53:53;;;;;;;21.30;13.30;;;;;;;;;;5052840;28;20455;-77
2022/02/15 14:56:19;;;;;;;20.52;12.80;;;;;;;;;;5054157;28;20013;-77
2022/02/15 14:58:50;;;;;;;23.92;13.73;;;;;;;;;;5052240;28;20021;-77
2022/02/15 15:01:16;;;;;;;20.52;13.02;;;;;;;;;;5053168;28;20044;-78
2022/02/15 15:03:41;;;;;;;24.60;14.27;;;;;;;;;;5053311;28;20231;-72
2022/02/15 15:06:09;;;;;;;22.38;14.60;;;;;;;;;;5053925;28;20052;-72
2022/02/15 15:08:35;;;;;;;22.45;13.30;;;;;;;;;;5053559;28;20360;-71
2022/02/15 15:11:00;;;;;;;17.25;10.95;;;;;;;;;;5053878;28;20075;-71
2022/02/15 15:13:27;;;;;;;21.30;11.70;;;;;;;;;;5052512;28;20040;-72
2022/02/15 15:15:53;;;;;;;17.95;11.55;;;;;;;;;;5052824;28;20116;-72
2022/02/15 15:18:19;;;;;;;19.33;12.45;;;;;;;;;;5052317;28;20057;-72
2022/02/15 15:20:44;;;;;;;21.08;12.98;;;;;;;;;;5053513;28;20025;-72
2022/02/15 15:23:10;;;;;;;23.90;13.30;;;;;;;;;;5051948;28;20021;-71
2022/02/15 15:25:38;;;;;;;19.65;12.75;;;;;;;;;;5035325;28;20060;-72
2022/02/15 15:28:04;;;;;;;18.20;13.05;;;;;;;;;;5052086;28;20468;-72
2022/02/15 15:30:29;;;;;;;25.25;15.82;;;;;;;;;;5052922;28;20235;-72
2022/02/15 15:32:54;;;;;;;44.88;16.35;;;;;;;;;;5053243;28;20020;-72
2022/02/15 15:35:20;;;;;;;35.33;15.98;;;;;;;;;;5053331;28;20070;-72
2022/02/15 15:37:45;;;;;;;25.13;14.13;;;;;;;;;;5053187;28;20021;-71
2022/02/15 15:40:12;;;;;;;39.10;15.40;;;;;;;;;;5053123;28;20055;-71
2022/02/15 15:42:38;;;;;;;83.28;18.30;;;;;;;;;;5053129;28;20020;-71
2022/02/15 15:45:03;;;;;;;84.25;21.65;;;;;;;;;;5053185;28;20033;-72
2022/02/15 15:47:37;;;;;;;72.90;32.70;;;;;;;;;;5052768;28;20124;-72
2022/02/15 15:50:07;;;;;;;68.43;32.90;;;;;;;;;;5051930;28;20055;-71
2022/02/15 15:52:32;;;;;;;40.15;23.33;;;;;;;;;;5053049;28;20391;-71
2022/02/15 15:54:59;;;;;;;32.90;18.33;;;;;;;;;;5052926;28;20108;-71
2022/02/15 15:57:24;;;;;;;26.65;17.00;;;;;;;;;;5051715;28;20124;-71
2022/02/15 15:59:52;;;;;;;31.35;17.48;;;;;;;;;;5052940;28;20021;-71
2022/02/15 16:02:18;;;;;;;46.22;20.45;;;;;;;;;;5051816;28;20025;-71
2022/02/15 16:04:46;;;;;;;54.22;22.80;;;;;;;;;;5053043;28;20029;-71
2022/02/15 16:07:12;;;;;;;57.33;28.83;;;;;;;;;;5052843;28;20063;-71
2022/02/15 16:09:38;;;;;;;60.35;33.30;;;;;;;;;;5052873;28;20059;-71
2022/02/15 16:12:04;;;;;;;81.63;45.15;;;;;;;;;;5052816;28;20013;-71
2022/02/15 16:14:29;;;;;;;117.20;59.75;;;;;;;;;;5052882;28;20028;-71
2022/02/15 16:16:57;;;;;;;93.15;53.25;;;;;;;;;;5052779;28;20021;-71
2022/02/15 16:19:23;;;;;;;124.07;63.65;;;;;;;;;;5052762;28;20187;-71
2022/02/15 16:21:48;;;;;;;171.27;77.55;;;;;;;;;;5052918;28;20061;-71
2022/02/15 16:24:13;;;;;;;244.57;111.10;;;;;;;;;;5052716;28;20033;-71
2022/02/15 16:26:39;;;;;;;207.30;106.35;;;;;;;;;;5052544;28;20017;-71
2022/02/15 16:29:04;;;;;;;80.28;45.17;;;;;;;;;;5051313;28;20035;-72
2022/02/15 16:31:30;;;;;;;59.45;34.33;;;;;;;;;;5034763;28;20100;-72
2022/02/15 16:33:56;;;;;;;101.13;51.75;;;;;;;;;;5053877;28;20025;-72
2022/02/15 16:36:21;;;;;;;186.40;102.93;;;;;;;;;;5056391;28;20028;-72
2022/02/15 16:38:48;;;;;;;154.32;80.85;;;;;;;;;;5056290;28;20411;-72
2022/02/15 16:41:13;;;;;;;133.98;70.18;;;;;;;;;;5055134;28;20025;-71
2022/02/15 16:43:39;;;;;;;197.77;76.65;;;;;;;;;;5056387;28;20033;-72
2022/02/15 16:46:04;;;;;;;195.63;90.65;;;;;;;;;;5056113;28;20021;-71
2022/02/15 16:48:32;;;;;;;141.73;67.00;;;;;;;;;;5054865;28;20064;-72
2022/02/15 16:50:58;;;;;;;91.57;36.10;;;;;;;;;;5056223;28;20033;-72
2022/02/15 16:53:23;;;;;;;109.25;46.03;;;;;;;;;;5056031;28;20020;-72
2022/02/15 16:55:50;;;;;;;94.90;41.03;;;;;;;;;;5056123;28;20116;-72
2022/02/15 16:58:16;;;;;;;106.90;49.58;;;;;;;;;;5055983;28;20020;-72
2022/02/15 17:00:41;;;;;;;127.13;59.28;;;;;;;;;;5055998;28;20059;-72
2022/02/15 17:03:07;;;;;;;106.72;52.05;;;;;;;;;;5054730;28;20352;-72
2022/02/15 17:05:32;;;;;;;101.28;52.45;;;;;;;;;;5038143;28;20035;-72
2022/02/15 17:07:58;;;;;;;116.90;55.63;;;;;;;;;;5054566;28;20017;-72
2022/02/15 17:10:23;;;;;;;126.18;58.33;;;;;;;;;;5054515;28;20029;-72
2022/02/15 17:12:48;;;;;;;107.97;53.03;;;;;;;;;;5055749;28;20558;-72
2022/02/15 17:15:14;;;;;;;118.70;47.47;;;;;;;;;;5055729;28;20506;-72
2022/02/15 17:17:40;;;;;;;95.90;46.55;;;;;;;;;;5055399;28;20039;-72
2022/02/15 17:20:09;;;;;;;112.55;50.20;;;;;;;;;;5055720;28;20029;-71
2022/02/15 17:22:36;;;;;;;127.90;63.45;;;;;;;;;;5055724;28;20044;-71
2022/02/15 17:25:08;;;;;;;80.03;41.63;;;;;;;;;;5055523;28;20029;-71
2022/02/15 17:27:34;;;;;;;76.10;42.53;;;;;;;;;;5055508;28;20414;-71
2022/02/15 17:29:59;;;;;;;86.63;45.15;;;;;;;;;;5055508;28;20050;-72
2022/02/15 17:32:27;;;;;;;112.95;61.83;;;;;;;;;;5055466;28;20025;-71
2022/02/15 17:34:52;;;;;;;100.07;51.15;;;;;;;;;;5055514;28;20032;-71
2022/02/15 17:37:18;;;;;;;91.25;42.38;;;;;;;;;;5055377;28;20143;-71
2022/02/15 17:39:43;;;;;;;107.40;47.80;;;;;;;;;;5055335;28;20049;-71
2022/02/15 17:42:11;;;;;;;116.25;50.22;;;;;;;;;;5055157;28;20033;-71
2022/02/15 17:44:36;;;;;;;128.02;55.97;;;;;;;;;;5053889;28;20566;-71
2022/02/15 17:47:02;;;;;;;139.02;65.93;;;;;;;;;;5054553;28;20040;-71
2022/02/15 17:49:28;;;;;;;75.28;45.08;;;;;;;;;;5055219;28;20112;-71
2022/02/15 17:51:54;;;;;;;72.68;42.70;;;;;;;;;;5053768;28;20112;-71